Terminal Aerodrome Forecast
Issued by NWS

Home | Current Version | Previous Version | Text Only | Print | Product List | Glossary On
Versions: 1 2 3 4 5 6 7 8 9 10 11 12 13 14 15 16
000
FTUS45 KBOU 201721
TAFBJC
TAF
KBJC 201721Z 2018/2118 08008KT P6SM FEW100 SCT200
     FM202100 05010KT P6SM VCTS SCT100CB
      TEMPO 2021/2024 VRB20G30KT
     FM210200 29007KT P6SM SCT100 BKN200
     FM211300 VRB05KT P6SM SCT100 BKN200
     FM211700 01008KT P6SM SCT100 BKN200=

USA.gov is the U.S. government's official web portal to all federal, state and local government web resources and services.